05:34
Airports
History
Links
Donate
Help keep this website running!
PayPal
Bitcoin
Information on this page is community maintained and may be outdated or inaccurate and is intended for reference only or PC simulator navigating.
Always use approved charts for navigating.
VEBD
BAGDOGRA
BAGDOGRA (VEBD)
Bagdogra, West Bengal, India (734421)
(C)
Lat/Lng:26° 40' 52.35" N / 88° 19' 42.84" E
26.681207 / 88.328567
Elevation:412'ft 126mMSL
ID / ICAO:VEBD
Runways:1
Longest:(18-36) 2,752.0m 9,029ft Asphalt
Controlled:Yes
Distance To
Airport ID:
Airport Radio Frequencies
Tower: 123.5
Approach: 119.7, 122.7
Nearby VORs <50NM
Nearby NDBs
METARUpdated 03-23-17 11:30 GMT
Altimeter: 29.80
Visibility: 3.7 statute miles
Wind: 4 knots (110°)
Temp: 28°c 82°f
Humidity: 58.1%

METAR: VEBD 231130Z 11004KT 6000 FEW030 FEW030TCU BKN100 28/19 Q1009

(Powered by phpweather)
Runway 18 / 36
Dimensions:2752 x 45.7m 9029' x 150'ft
Surface:Asphalt
Edge Lights:High intensity
Runway 18 [A]Runway 36 [B]
Heading:181°TH 001°TH
Lat:
Lng:
26° 41' 36.82"N
88° 19' 44.11"E
26° 40' 7.87"N
88° 19' 41.57"E
User Notes and Comments
Google Map
Nearby Airports
(C) BHADRAPUR / CHANDRAGADHI 17.2 NM
VNCG WSW 243°
(C) Taplejung / Suketar 60.5 NM
VNTJ NW 319°
(U) HASHIMARA 64.2 NM
VE44 E 88°
(C) BIRATNAGAR 67.2 NM
VNVT WSW 258°
(C) SAIDPUR 73.2 NM
VGSD SSE 150°
(C) COOCH BEHAR 74.5 NM
VECO ESE 108°
4 Tumlingtar 82.3 NM
VNTR WNW 302°
VFR Chart
Flight Planning at SkyVector.com